Time;durP1;ratioP1;P1;durP2;ratioP2;P2;SDS_P1;SDS_P2;PMS_P1;PMS_P2;Temp;Humidity;BMP_temperature;BMP_pressure;BME280_temperature;BME280_humidity;BME280_pressure;Samples;Min_cycle;Max_cycle;Signal;HPM_P1;HPM_P2
2023/09/11 00:00:59;;;;;;;;;;;;;;;;;;5018320;27;103113;-61
2023/09/11 00:03:25;;;;;;;32.38;25.27;;;;;;;;;;5010724;27;130636;-60
2023/09/11 00:06:01;;;;;;;24.10;19.35;;;;;;;;;;5014419;27;98663;-60
2023/09/11 00:08:30;;;;;;;27.98;20.58;;;;;;;;;;5009276;27;99303;-60
2023/09/11 00:10:58;;;;;;;20.63;17.75;;;;;;;;;;5009996;27;99478;-60
2023/09/11 00:13:25;;;;;;;17.83;15.20;;;;;;;;;;5016307;27;97882;-60
2023/09/11 00:15:51;;;;;;;18.40;16.48;;;;;;;;;;5008408;27;99140;-60
2023/09/11 00:18:17;;;;;;;17.55;15.85;;;;;;;;;;5010519;27;98586;-60
2023/09/11 00:20:44;;;;;;;19.00;16.45;;;;;;;;;;5009111;27;99941;-60
2023/09/11 00:23:10;;;;;;;21.80;19.38;;;;;;;;;;5014273;27;99528;-60
2023/09/11 00:25:37;;;;;;;17.30;15.45;;;;;;;;;;5013262;27;98436;-61
2023/09/11 00:28:03;;;;;;;18.70;15.55;;;;;;;;;;5013484;27;99679;-61
2023/09/11 00:30:29;;;;;;;17.90;13.25;;;;;;;;;;5009217;27;99483;-60
2023/09/11 00:32:56;;;;;;;22.30;14.55;;;;;;;;;;5013534;27;98653;-60
2023/09/11 00:35:22;;;;;;;16.70;12.82;;;;;;;;;;5011742;27;100388;-59
2023/09/11 00:37:48;;;;;;;17.70;14.10;;;;;;;;;;5009658;27;97787;-60
2023/09/11 00:40:15;;;;;;;18.88;13.98;;;;;;;;;;5009430;27;99442;-60
2023/09/11 00:42:41;;;;;;;24.60;16.55;;;;;;;;;;5008087;27;99423;-60
2023/09/11 00:45:08;;;;;;;21.95;14.05;;;;;;;;;;5008520;27;100395;-60
2023/09/11 00:47:34;;;;;;;16.55;14.40;;;;;;;;;;5010067;27;99952;-60
2023/09/11 00:50:01;;;;;;;19.45;16.63;;;;;;;;;;5009068;27;99453;-60
2023/09/11 00:52:27;;;;;;;19.73;16.83;;;;;;;;;;5008547;27;98634;-60
2023/09/11 00:54:54;;;;;;;18.83;16.27;;;;;;;;;;5009195;27;99596;-60
2023/09/11 00:57:21;;;;;;;20.38;15.68;;;;;;;;;;5011246;27;99494;-60
2023/09/11 00:59:50;;;;;;;21.73;13.27;;;;;;;;;;5008276;27;99240;-60
2023/09/11 01:02:18;;;;;;;17.45;13.20;;;;;;;;;;5012796;27;99776;-60
2023/09/11 01:04:44;;;;;;;21.33;15.52;;;;;;;;;;5009059;27;98409;-60
2023/09/11 01:07:12;;;;;;;24.35;18.65;;;;;;;;;;5008557;27;99384;-60
2023/09/11 01:09:39;;;;;;;20.35;14.02;;;;;;;;;;5030861;27;101193;-60
2023/09/11 01:12:06;;;;;;;20.40;15.85;;;;;;;;;;5014976;27;98499;-60
2023/09/11 01:14:33;;;;;;;14.70;13.50;;;;;;;;;;5008541;27;99087;-60
2023/09/11 01:17:24;;;;;;;22.42;13.55;;;;;;;;;;5017098;27;99387;-60
2023/09/11 01:19:50;;;;;;;20.10;16.58;;;;;;;;;;5008577;27;98788;-60
2023/09/11 01:22:17;;;;;;;18.58;14.52;;;;;;;;;;5010097;27;102032;-60
2023/09/11 01:25:02;;;;;;;19.20;14.85;;;;;;;;;;5008093;27;98594;-60
2023/09/11 01:27:43;;;;;;;22.60;16.98;;;;;;;;;;5010961;27;99267;-60
2023/09/11 01:30:11;;;;;;;19.50;14.40;;;;;;;;;;5008612;27;99474;-60
2023/09/11 01:32:37;;;;;;;17.48;13.32;;;;;;;;;;5008093;27;98598;-60
2023/09/11 01:35:04;;;;;;;17.17;12.00;;;;;;;;;;5007779;27;100197;-60
2023/09/11 01:37:31;;;;;;;18.23;13.60;;;;;;;;;;5008519;27;100454;-60
2023/09/11 01:39:58;;;;;;;18.73;13.85;;;;;;;;;;5011770;27;98610;-60
2023/09/11 01:42:31;;;;;;;18.05;13.75;;;;;;;;;;5006800;27;100514;-60
2023/09/11 01:44:58;;;;;;;21.08;18.77;;;;;;;;;;5008092;27;98991;-60
2023/09/11 01:47:25;;;;;;;20.25;17.48;;;;;;;;;;5008920;27;100205;-60
2023/09/11 01:49:52;;;;;;;18.30;15.05;;;;;;;;;;5007608;27;99561;-60
2023/09/11 01:52:19;;;;;;;22.88;18.42;;;;;;;;;;5012564;27;97667;-60
2023/09/11 01:54:46;;;;;;;20.85;16.17;;;;;;;;;;5008505;27;98521;-60
2023/09/11 01:57:13;;;;;;;20.75;15.80;;;;;;;;;;5011390;27;99452;-61
2023/09/11 01:59:40;;;;;;;17.55;15.70;;;;;;;;;;5007283;27;99511;-61
2023/09/11 02:02:06;;;;;;;15.35;12.30;;;;;;;;;;5011191;27;99984;-60
2023/09/11 02:04:32;;;;;;;16.33;14.43;;;;;;;;;;5007765;27;98671;-60
2023/09/11 02:06:59;;;;;;;16.75;15.00;;;;;;;;;;5011962;27;99205;-60
2023/09/11 02:09:25;;;;;;;21.75;16.50;;;;;;;;;;5006652;27;99534;-60
2023/09/11 02:11:51;;;;;;;20.88;15.57;;;;;;;;;;5007932;27;98474;-60
2023/09/11 02:14:18;;;;;;;18.85;16.98;;;;;;;;;;5009097;27;100417;-61
2023/09/11 02:16:45;;;;;;;19.00;15.55;;;;;;;;;;5012548;27;99797;-60
2023/09/11 02:19:11;;;;;;;15.05;13.52;;;;;;;;;;5012583;27;100034;-61
2023/09/11 02:21:38;;;;;;;27.55;16.02;;;;;;;;;;5007999;27;99696;-61
2023/09/11 02:24:04;;;;;;;19.20;15.82;;;;;;;;;;5021108;27;100528;-60
2023/09/11 02:26:31;;;;;;;19.15;14.15;;;;;;;;;;5007444;27;99900;-61
2023/09/11 02:28:59;;;;;;;18.52;16.70;;;;;;;;;;5011653;27;100484;-60
2023/09/11 02:31:26;;;;;;;17.52;12.77;;;;;;;;;;5007217;27;98547;-60
2023/09/11 02:33:53;;;;;;;21.35;16.00;;;;;;;;;;5007535;27;99228;-60
2023/09/11 02:36:19;;;;;;;17.35;13.85;;;;;;;;;;5007316;27;99562;-60
2023/09/11 02:38:45;;;;;;;16.45;13.52;;;;;;;;;;5011543;27;98740;-61
2023/09/11 02:41:12;;;;;;;21.95;15.32;;;;;;;;;;5007152;27;99216;-61
2023/09/11 02:43:38;;;;;;;17.83;14.38;;;;;;;;;;5007423;27;100792;-60
2023/09/11 02:46:05;;;;;;;20.48;18.52;;;;;;;;;;5020249;27;98894;-61
2023/09/11 02:48:32;;;;;;;18.55;16.60;;;;;;;;;;5006359;27;101202;-60
2023/09/11 02:50:59;;;;;;;17.77;15.95;;;;;;;;;;5007318;27;99014;-61
2023/09/11 02:53:25;;;;;;;20.73;16.95;;;;;;;;;;5007074;27;100286;-61
2023/09/11 02:55:52;;;;;;;27.45;18.38;;;;;;;;;;5013867;27;99691;-60
2023/09/11 02:58:18;;;;;;;24.95;17.98;;;;;;;;;;5015069;27;98687;-60
2023/09/11 03:00:45;;;;;;;19.27;17.23;;;;;;;;;;5015161;27;100275;-60
2023/09/11 03:03:11;;;;;;;23.45;17.27;;;;;;;;;;5010028;27;100477;-60
2023/09/11 03:05:37;;;;;;;20.25;16.95;;;;;;;;;;5010771;27;97762;-60
2023/09/11 03:08:06;;;;;;;17.73;14.93;;;;;;;;;;5018112;27;98611;-61
2023/09/11 03:10:32;;;;;;;25.17;16.67;;;;;;;;;;5008888;27;98741;-60
2023/09/11 03:12:59;;;;;;;18.95;13.88;;;;;;;;;;5010530;27;99510;-60
2023/09/11 03:15:26;;;;;;;18.20;16.38;;;;;;;;;;5010140;27;99462;-60
2023/09/11 03:17:53;;;;;;;19.35;17.30;;;;;;;;;;5012165;27;98555;-60
2023/09/11 03:20:20;;;;;;;23.23;15.45;;;;;;;;;;5010651;27;99462;-60
2023/09/11 03:22:46;;;;;;;18.92;15.20;;;;;;;;;;5012168;27;99508;-60
2023/09/11 03:25:12;;;;;;;16.83;15.07;;;;;;;;;;5009408;27;98586;-59
2023/09/11 03:27:39;;;;;;;16.98;12.88;;;;;;;;;;5026119;27;99982;-60
2023/09/11 03:30:05;;;;;;;22.15;19.38;;;;;;;;;;5010955;27;97844;-60
2023/09/11 03:32:32;;;;;;;19.50;13.20;;;;;;;;;;5009999;27;98801;-60
2023/09/11 03:34:58;;;;;;;23.45;16.23;;;;;;;;;;5009247;27;100857;-60
2023/09/11 03:37:25;;;;;;;22.95;13.85;;;;;;;;;;5009929;27;99654;-60
2023/09/11 03:39:52;;;;;;;19.40;14.68;;;;;;;;;;5009372;27;100239;-60
2023/09/11 03:42:18;;;;;;;24.20;15.48;;;;;;;;;;5013613;27;100516;-60
2023/09/11 03:44:44;;;;;;;17.35;14.80;;;;;;;;;;5018379;27;100129;-61
2023/09/11 03:47:11;;;;;;;20.80;16.55;;;;;;;;;;5014252;27;99282;-59
2023/09/11 03:49:38;;;;;;;19.92;17.52;;;;;;;;;;5015693;27;100483;-60
2023/09/11 03:52:04;;;;;;;24.40;17.15;;;;;;;;;;5009882;27;99581;-61
2023/09/11 03:54:30;;;;;;;20.55;18.13;;;;;;;;;;5010009;27;98751;-60
2023/09/11 03:56:57;;;;;;;22.27;19.60;;;;;;;;;;5009816;27;98538;-60
2023/09/11 03:59:23;;;;;;;24.67;18.58;;;;;;;;;;5015256;27;99218;-63
2023/09/11 04:01:50;;;;;;;26.33;23.05;;;;;;;;;;5010869;27;101205;-61
2023/09/11 04:04:16;;;;;;;23.60;17.52;;;;;;;;;;5009886;27;98762;-61
2023/09/11 04:06:43;;;;;;;23.13;19.17;;;;;;;;;;5009154;27;99181;-62
2023/09/11 04:09:09;;;;;;;21.50;17.92;;;;;;;;;;5013629;27;99436;-62
2023/09/11 04:11:35;;;;;;;22.98;20.02;;;;;;;;;;5017791;27;99423;-62
2023/09/11 04:14:02;;;;;;;22.60;20.02;;;;;;;;;;5012437;27;100497;-62
2023/09/11 04:16:28;;;;;;;22.25;19.35;;;;;;;;;;5012425;27;98830;-61
2023/09/11 04:18:54;;;;;;;24.75;20.10;;;;;;;;;;5009272;27;99187;-61
2023/09/11 04:21:21;;;;;;;25.33;20.08;;;;;;;;;;5009306;27;100672;-62
2023/09/11 04:23:47;;;;;;;21.42;19.23;;;;;;;;;;5012199;27;98659;-62
2023/09/11 04:26:14;;;;;;;18.73;16.92;;;;;;;;;;5012936;27;99356;-61
2023/09/11 04:28:40;;;;;;;26.65;21.35;;;;;;;;;;5008557;27;99519;-61
2023/09/11 04:31:07;;;;;;;21.55;18.77;;;;;;;;;;5009566;27;99019;-61
2023/09/11 04:33:34;;;;;;;23.30;19.52;;;;;;;;;;5012359;27;100196;-61
2023/09/11 04:36:00;;;;;;;23.48;21.13;;;;;;;;;;5008501;27;98529;-62
2023/09/11 04:38:27;;;;;;;20.17;18.05;;;;;;;;;;5024215;27;99958;-61
2023/09/11 04:40:54;;;;;;;24.30;18.08;;;;;;;;;;5010975;27;99382;-61
2023/09/11 04:43:20;;;;;;;25.10;19.00;;;;;;;;;;5009345;27;97908;-62
2023/09/11 04:45:46;;;;;;;27.23;21.73;;;;;;;;;;5008159;27;98612;-61
2023/09/11 04:48:13;;;;;;;25.23;19.55;;;;;;;;;;5018844;27;99571;-62
2023/09/11 04:50:39;;;;;;;21.10;17.63;;;;;;;;;;5008407;27;99294;-61
2023/09/11 04:53:06;;;;;;;30.52;20.45;;;;;;;;;;5009132;27;99924;-62
2023/09/11 04:55:32;;;;;;;28.25;22.70;;;;;;;;;;5015433;27;100598;-61
2023/09/11 04:57:58;;;;;;;33.75;22.38;;;;;;;;;;5009097;27;99237;-61
2023/09/11 05:00:26;;;;;;;22.63;18.42;;;;;;;;;;5008453;27;100945;-61
2023/09/11 05:02:52;;;;;;;30.23;21.27;;;;;;;;;;5007926;27;98736;-62
2023/09/11 05:05:19;;;;;;;24.75;20.58;;;;;;;;;;5008799;27;99186;-62
2023/09/11 05:07:45;;;;;;;20.73;17.17;;;;;;;;;;5008749;27;98813;-62
2023/09/11 05:10:14;;;;;;;23.92;19.85;;;;;;;;;;5008409;27;98582;-61
2023/09/11 05:12:41;;;;;;;22.92;20.33;;;;;;;;;;5008655;27;100267;-61
2023/09/11 05:15:07;;;;;;;29.70;26.13;;;;;;;;;;5010881;27;100195;-61
2023/09/11 05:17:33;;;;;;;37.72;22.98;;;;;;;;;;5013330;27;98782;-61
2023/09/11 05:20:00;;;;;;;28.25;19.08;;;;;;;;;;5012088;27;99221;-61
2023/09/11 05:22:26;;;;;;;24.23;20.35;;;;;;;;;;5011262;27;98487;-61
2023/09/11 05:24:53;;;;;;;26.65;22.38;;;;;;;;;;5011778;27;100274;-62
2023/09/11 05:27:21;;;;;;;26.85;23.92;;;;;;;;;;5007737;27;99373;-61
2023/09/11 05:29:48;;;;;;;26.98;21.27;;;;;;;;;;5007655;27;98661;-61
2023/09/11 05:32:14;;;;;;;24.73;22.13;;;;;;;;;;5008994;27;99475;-63
2023/09/11 05:34:41;;;;;;;28.23;24.55;;;;;;;;;;5008241;27;99461;-60
2023/09/11 05:37:07;;;;;;;30.85;26.65;;;;;;;;;;5011643;27;99092;-61
2023/09/11 05:39:34;;;;;;;36.70;24.17;;;;;;;;;;5006405;27;100254;-63
2023/09/11 05:42:00;;;;;;;32.90;24.25;;;;;;;;;;5012207;27;98648;-63
2023/09/11 05:44:27;;;;;;;30.42;24.92;;;;;;;;;;5008182;27;98922;-63
2023/09/11 05:46:54;;;;;;;33.92;23.63;;;;;;;;;;5015826;27;100078;-63
2023/09/11 05:49:21;;;;;;;30.38;21.25;;;;;;;;;;5007982;27;98852;-63
2023/09/11 05:51:48;;;;;;;38.08;25.95;;;;;;;;;;5006271;27;99191;-64
2023/09/11 05:54:14;;;;;;;29.20;21.48;;;;;;;;;;5015441;27;99527;-63
2023/09/11 05:56:41;;;;;;;34.80;22.63;;;;;;;;;;5008372;27;97770;-61
2023/09/11 05:59:07;;;;;;;30.05;22.00;;;;;;;;;;5018032;27;99195;-61
2023/09/11 06:01:33;;;;;;;36.95;22.30;;;;;;;;;;5008152;27;98457;-61
2023/09/11 06:04:00;;;;;;;31.83;20.35;;;;;;;;;;5022554;27;100580;-61
2023/09/11 06:06:26;;;;;;;34.30;21.63;;;;;;;;;;5009195;27;99372;-61
2023/09/11 06:08:54;;;;;;;36.33;21.17;;;;;;;;;;5007654;27;98636;-61
2023/09/11 06:11:21;;;;;;;30.02;21.65;;;;;;;;;;5008063;27;100350;-61
2023/09/11 06:13:48;;;;;;;32.03;21.35;;;;;;;;;;5011423;27;100651;-61
2023/09/11 06:16:15;;;;;;;35.38;20.83;;;;;;;;;;5009733;27;98988;-63
2023/09/11 06:18:41;;;;;;;32.20;20.48;;;;;;;;;;5007978;27;99274;-61
2023/09/11 06:21:08;;;;;;;33.78;19.80;;;;;;;;;;5010510;27;98710;-61
2023/09/11 06:23:35;;;;;;;28.38;19.25;;;;;;;;;;5010745;27;99511;-61
2023/09/11 06:26:01;;;;;;;30.77;18.27;;;;;;;;;;5009967;27;100560;-61
2023/09/11 06:28:28;;;;;;;24.40;18.63;;;;;;;;;;5010006;27;99269;-61
2023/09/11 06:30:54;;;;;;;30.35;17.05;;;;;;;;;;5010576;27;100143;-61
2023/09/11 06:33:21;;;;;;;27.45;17.45;;;;;;;;;;5009933;27;99486;-61
2023/09/11 06:35:47;;;;;;;29.80;16.33;;;;;;;;;;5011172;27;98987;-61
2023/09/11 06:38:14;;;;;;;23.83;15.35;;;;;;;;;;5011377;27;99076;-63
2023/09/11 06:40:40;;;;;;;35.70;15.95;;;;;;;;;;5009981;27;99428;-61
2023/09/11 06:43:06;;;;;;;29.40;15.05;;;;;;;;;;5020981;27;98884;-62
2023/09/11 06:45:34;;;;;;;21.13;13.00;;;;;;;;;;5015778;27;98685;-60
2023/09/11 06:48:00;;;;;;;23.33;13.63;;;;;;;;;;5015032;27;98471;-61
2023/09/11 06:50:27;;;;;;;23.90;13.45;;;;;;;;;;5017013;27;99256;-61
2023/09/11 06:52:54;;;;;;;30.02;12.98;;;;;;;;;;5014233;27;101297;-61
2023/09/11 06:55:20;;;;;;;31.05;14.23;;;;;;;;;;5010304;27;98558;-61
2023/09/11 06:57:56;;;;;;;20.38;12.93;;;;;;;;;;5010269;27;99086;-61
2023/09/11 07:00:23;;;;;;;24.30;12.80;;;;;;;;;;5011154;27;99437;-61
2023/09/11 07:02:49;;;;;;;21.55;12.20;;;;;;;;;;5013445;27;98662;-61
2023/09/11 07:05:16;;;;;;;30.83;13.05;;;;;;;;;;5021753;27;100294;-61
2023/09/11 07:07:42;;;;;;;21.52;13.40;;;;;;;;;;5011054;27;98812;-63
2023/09/11 07:10:12;;;;;;;26.70;12.63;;;;;;;;;;5011224;27;100419;-61
2023/09/11 07:12:45;;;;;;;23.27;13.45;;;;;;;;;;5010460;27;99497;-61
2023/09/11 07:15:12;;;;;;;18.83;11.93;;;;;;;;;;5017827;27;98641;-61
2023/09/11 07:17:39;;;;;;;26.70;13.05;;;;;;;;;;5024479;27;100259;-61
2023/09/11 07:20:05;;;;;;;26.55;12.82;;;;;;;;;;5010843;27;99807;-61
2023/09/11 07:22:32;;;;;;;31.30;13.02;;;;;;;;;;5017764;27;99109;-61
2023/09/11 07:24:58;;;;;;;26.27;13.55;;;;;;;;;;5013958;27;99331;-61
2023/09/11 07:27:32;;;;;;;23.75;13.82;;;;;;;;;;5010982;27;98825;-61
2023/09/11 07:29:59;;;;;;;23.10;12.85;;;;;;;;;;5012656;27;100262;-61
2023/09/11 07:32:26;;;;;;;21.88;12.85;;;;;;;;;;5013799;27;99523;-61
2023/09/11 07:34:52;;;;;;;24.33;12.32;;;;;;;;;;5010538;27;97792;-61
2023/09/11 07:37:19;;;;;;;34.00;12.75;;;;;;;;;;5017682;27;98652;-61
2023/09/11 07:39:45;;;;;;;27.27;12.48;;;;;;;;;;5009289;27;99504;-61
2023/09/11 07:42:11;;;;;;;20.50;12.20;;;;;;;;;;5009126;27;99429;-61
2023/09/11 07:44:38;;;;;;;31.23;12.18;;;;;;;;;;5008968;27;100044;-61
2023/09/11 07:47:04;;;;;;;21.55;11.77;;;;;;;;;;5015845;27;99531;-60
2023/09/11 07:49:31;;;;;;;19.95;11.50;;;;;;;;;;5009468;27;99523;-61
2023/09/11 07:51:57;;;;;;;23.40;12.77;;;;;;;;;;5012966;27;99404;-61
2023/09/11 07:54:23;;;;;;;16.60;11.38;;;;;;;;;;5009646;27;98630;-61
2023/09/11 07:56:52;;;;;;;23.77;12.30;;;;;;;;;;5012989;27;98847;-60
2023/09/11 07:59:18;;;;;;;29.98;12.13;;;;;;;;;;5008514;27;100022;-60
2023/09/11 08:01:45;;;;;;;27.85;11.90;;;;;;;;;;5010323;27;98950;-61
2023/09/11 08:04:11;;;;;;;23.92;11.45;;;;;;;;;;5013904;27;99220;-60
2023/09/11 08:06:37;;;;;;;20.08;11.38;;;;;;;;;;5008782;27;100228;-61
2023/09/11 08:09:04;;;;;;;16.52;12.00;;;;;;;;;;5016608;27;98451;-62
2023/09/11 08:11:31;;;;;;;19.35;11.02;;;;;;;;;;5009248;27;99528;-62
2023/09/11 08:13:58;;;;;;;26.73;11.40;;;;;;;;;;5008965;27;99030;-61
2023/09/11 08:16:25;;;;;;;22.70;11.32;;;;;;;;;;5012056;27;99283;-62
2023/09/11 08:18:52;;;;;;;18.35;11.10;;;;;;;;;;5013265;27;99408;-61
2023/09/11 08:21:21;;;;;;;24.45;11.20;;;;;;;;;;5008253;27;98836;-62
2023/09/11 08:23:48;;;;;;;17.40;11.90;;;;;;;;;;5009985;27;99198;-61
2023/09/11 08:26:14;;;;;;;25.70;11.65;;;;;;;;;;5008578;27;99608;-61
2023/09/11 08:28:40;;;;;;;20.00;11.35;;;;;;;;;;5016759;27;99797;-61
2023/09/11 08:31:07;;;;;;;18.85;11.35;;;;;;;;;;5012969;27;100298;-61
2023/09/11 08:33:34;;;;;;;29.27;11.02;;;;;;;;;;5008821;27;99006;-61
2023/09/11 08:36:19;;;;;;;20.02;11.48;;;;;;;;;;5008736;27;99312;-61
2023/09/11 08:38:47;;;;;;;21.77;11.43;;;;;;;;;;5008366;27;99562;-61
2023/09/11 08:41:14;;;;;;;24.30;11.20;;;;;;;;;;5012791;27;99064;-61
2023/09/11 08:43:40;;;;;;;20.38;10.05;;;;;;;;;;5007994;27;99188;-62
2023/09/11 08:46:07;;;;;;;16.58;10.38;;;;;;;;;;5009923;27;99523;-61
2023/09/11 08:48:35;;;;;;;23.15;10.02;;;;;;;;;;5017085;27;97774;-61
2023/09/11 08:51:05;;;;;;;19.02;9.48;;;;;;;;;;5011277;27;98584;-62
2023/09/11 08:53:35;;;;;;;20.08;9.75;;;;;;;;;;5012842;27;99580;-62
2023/09/11 08:56:02;;;;;;;23.90;9.20;;;;;;;;;;5008210;27;99255;-62
2023/09/11 08:58:31;;;;;;;20.77;9.60;;;;;;;;;;5017344;27;99526;-62
2023/09/11 09:00:58;;;;;;;18.92;8.77;;;;;;;;;;5010089;27;98649;-62
2023/09/11 09:03:25;;;;;;;19.95;8.90;;;;;;;;;;5008946;27;99239;-62
2023/09/11 09:05:52;;;;;;;19.63;9.10;;;;;;;;;;5009319;27;100541;-62
2023/09/11 09:08:19;;;;;;;18.70;9.05;;;;;;;;;;5009625;27;98610;-62
2023/09/11 09:10:48;;;;;;;19.35;8.60;;;;;;;;;;5009487;27;100507;-62
2023/09/11 09:13:14;;;;;;;14.23;7.80;;;;;;;;;;5011966;27;98746;-61
2023/09/11 09:15:41;;;;;;;22.75;7.72;;;;;;;;;;5012983;27;98686;-61
2023/09/11 09:18:09;;;;;;;16.13;6.47;;;;;;;;;;5015700;27;99448;-61
2023/09/11 09:20:37;;;;;;;16.38;7.32;;;;;;;;;;5009861;27;99810;-61
2023/09/11 09:23:03;;;;;;;15.07;7.13;;;;;;;;;;5009579;27;101220;-61
2023/09/11 09:25:30;;;;;;;10.45;6.60;;;;;;;;;;5007220;27;98606;-61
2023/09/11 09:27:57;;;;;;;18.33;6.32;;;;;;;;;;5017228;27;98459;-61
2023/09/11 09:30:30;;;;;;;16.25;5.70;;;;;;;;;;5009103;27;99176;-62
2023/09/11 09:32:57;;;;;;;11.50;4.95;;;;;;;;;;5008406;27;99354;-61
2023/09/11 09:35:32;;;;;;;12.93;4.80;;;;;;;;;;5020234;27;98782;-61
2023/09/11 09:38:00;;;;;;;12.43;5.43;;;;;;;;;;5010372;27;98783;-61
2023/09/11 09:40:31;;;;;;;9.50;5.00;;;;;;;;;;5016009;27;98530;-61
2023/09/11 09:42:59;;;;;;;11.13;5.05;;;;;;;;;;5011441;27;99143;-61
2023/09/11 09:45:29;;;;;;;13.02;5.38;;;;;;;;;;5011951;27;100332;-61
2023/09/11 09:48:05;;;;;;;9.88;4.65;;;;;;;;;;5015698;27;98512;-61
2023/09/11 09:50:50;;;;;;;9.93;5.43;;;;;;;;;;5008715;27;100833;-61
2023/09/11 09:53:28;;;;;;;11.88;4.50;;;;;;;;;;5008599;27;100584;-61
2023/09/11 09:55:56;;;;;;;13.10;5.50;;;;;;;;;;5020854;27;98457;-61
2023/09/11 09:58:28;;;;;;;17.83;5.82;;;;;;;;;;5015864;27;100560;-61
2023/09/11 10:00:58;;;;;;;13.60;4.43;;;;;;;;;;5016697;27;98504;-61
2023/09/11 10:03:24;;;;;;;;;;;;;;;;;;5012965;27;100217;-61
2023/09/11 10:05:51;;;;;;;20.08;5.65;;;;;;;;;;5016198;27;130317;-62
2023/09/11 10:08:17;;;;;;;11.40;4.65;;;;;;;;;;5015437;27;98752;-61
2023/09/11 10:10:44;;;;;;;19.70;5.70;;;;;;;;;;5014169;27;99637;-61
2023/09/11 10:13:12;;;;;;;11.75;5.20;;;;;;;;;;5018939;27;99489;-63
2023/09/11 10:15:41;;;;;;;16.00;6.05;;;;;;;;;;5014420;27;98940;-61
2023/09/11 10:18:09;;;;;;;19.67;6.22;;;;;;;;;;5018640;27;100336;-61
2023/09/11 10:20:35;;;;;;;14.68;5.47;;;;;;;;;;5018277;27;99579;-61
2023/09/11 10:23:04;;;;;;;16.48;5.82;;;;;;;;;;5015919;27;100189;-61
2023/09/11 10:25:36;;;;;;;16.58;5.80;;;;;;;;;;5014930;27;99212;-61
2023/09/11 10:28:04;;;;;;;13.90;6.00;;;;;;;;;;5015008;27;97997;-61
2023/09/11 10:30:32;;;;;;;9.82;5.10;;;;;;;;;;5023866;27;98692;-61
2023/09/11 10:33:05;;;;;;;19.42;5.75;;;;;;;;;;5014068;27;99508;-61
2023/09/11 10:35:34;;;;;;;10.18;5.63;;;;;;;;;;5015303;27;99400;-61
2023/09/11 10:38:02;;;;;;;17.23;5.88;;;;;;;;;;5017016;27;99942;-61
2023/09/11 10:40:29;;;;;;;15.60;5.97;;;;;;;;;;5018740;27;100506;-61
2023/09/11 10:42:56;;;;;;;18.02;6.07;;;;;;;;;;5023106;27;99710;-61
2023/09/11 10:45:29;;;;;;;15.07;5.90;;;;;;;;;;5013814;27;99492;-61
2023/09/11 10:47:56;;;;;;;15.63;5.70;;;;;;;;;;5018533;27;98538;-60
2023/09/11 10:50:23;;;;;;;12.60;5.65;;;;;;;;;;5015119;27;99163;-61
2023/09/11 10:52:52;;;;;;;13.70;5.10;;;;;;;;;;5014744;27;98837;-61
2023/09/11 10:55:21;;;;;;;13.57;4.85;;;;;;;;;;5014581;27;98606;-62
2023/09/11 10:57:50;;;;;;;17.02;4.88;;;;;;;;;;5019137;27;99038;-62
2023/09/11 11:00:16;;;;;;;16.00;4.30;;;;;;;;;;5013037;27;100234;-61
2023/09/11 11:02:43;;;;;;;12.07;4.35;;;;;;;;;;5014942;27;98542;-61
2023/09/11 11:05:13;;;;;;;15.68;4.78;;;;;;;;;;5017166;27;99372;-61
2023/09/11 11:07:40;;;;;;;9.77;3.88;;;;;;;;;;5014069;27;98536;-61
2023/09/11 11:10:11;;;;;;;11.90;4.53;;;;;;;;;;5017834;27;99206;-61
2023/09/11 11:12:40;;;;;;;10.02;4.35;;;;;;;;;;5016119;27;100543;-61
2023/09/11 11:15:33;;;;;;;12.60;4.23;;;;;;;;;;5013009;27;98713;-62
2023/09/11 11:18:23;;;;;;;12.80;4.50;;;;;;;;;;5011819;27;99480;-61
2023/09/11 11:21:05;;;;;;;9.35;4.35;;;;;;;;;;5010836;27;100612;-61
2023/09/11 11:23:33;;;;;;;15.25;4.70;;;;;;;;;;5011419;27;98614;-61
2023/09/11 11:26:03;;;;;;;18.02;6.10;;;;;;;;;;5010877;27;99342;-62
2023/09/11 11:28:40;;;;;;;18.27;6.25;;;;;;;;;;5013504;27;99445;-61
2023/09/11 11:31:08;;;;;;;17.98;6.35;;;;;;;;;;5014958;27;99188;-61
2023/09/11 11:33:37;;;;;;;20.63;11.20;;;;;;;;;;5010239;27;99696;-62
2023/09/11 11:36:07;;;;;;;13.18;4.32;;;;;;;;;;5014736;27;98724;-61
2023/09/11 11:38:34;;;;;;;10.00;4.82;;;;;;;;;;5011341;27;100263;-61
2023/09/11 11:41:02;;;;;;;9.65;5.00;;;;;;;;;;5010046;27;99633;-61
2023/09/11 11:43:30;;;;;;;25.48;5.15;;;;;;;;;;5011505;27;97864;-61
2023/09/11 11:45:57;;;;;;;11.38;4.50;;;;;;;;;;5010009;27;98505;-61
2023/09/11 11:48:25;;;;;;;11.05;4.40;;;;;;;;;;5017133;27;99873;-60
2023/09/11 11:50:51;;;;;;;10.20;4.60;;;;;;;;;;5010094;27;99160;-60
2023/09/11 11:53:19;;;;;;;16.27;5.85;;;;;;;;;;5009928;27;100425;-60
2023/09/11 11:55:48;;;;;;;8.82;3.15;;;;;;;;;;5010268;27;98981;-61
2023/09/11 11:58:15;;;;;;;14.13;10.63;;;;;;;;;;5009572;27;99397;-60
2023/09/11 12:00:58;;;;;;;22.50;19.08;;;;;;;;;;5009398;27;100579;-60
2023/09/11 12:03:26;;;;;;;8.27;3.08;;;;;;;;;;5013536;27;98495;-60
2023/09/11 12:05:53;;;;;;;12.48;5.40;;;;;;;;;;5012245;27;99144;-60
2023/09/11 12:08:20;;;;;;;31.55;28.65;;;;;;;;;;5015761;27;99749;-61
2023/09/11 12:10:50;;;;;;;39.47;36.25;;;;;;;;;;5013122;27;98550;-61
2023/09/11 12:13:16;;;;;;;;;;;;;;;;;;5009411;27;99473;-61
2023/09/11 12:15:43;;;;;;;34.17;28.92;;;;;;;;;;5010017;27;120699;-61
2023/09/11 12:18:12;;;;;;;81.78;75.47;;;;;;;;;;5008076;27;100303;-61
2023/09/11 12:20:49;;;;;;;105.20;96.82;;;;;;;;;;5008628;27;99522;-59
2023/09/11 12:23:18;;;;;;;107.13;98.80;;;;;;;;;;5010689;27;98604;-61
2023/09/11 12:25:44;;;;;;;125.28;114.25;;;;;;;;;;5008581;27;98541;-61
2023/09/11 12:28:11;;;;;;;103.80;95.22;;;;;;;;;;5012804;27;99459;-59
2023/09/11 12:30:37;;;;;;;111.72;100.45;;;;;;;;;;5009275;27;99101;-59
2023/09/11 12:33:04;;;;;;;75.32;69.65;;;;;;;;;;5011595;27;99401;-60
2023/09/11 12:35:31;;;;;;;118.68;108.18;;;;;;;;;;5009093;27;98581;-62
2023/09/11 12:37:58;;;;;;;92.63;84.93;;;;;;;;;;5008559;27;100371;-61
2023/09/11 12:40:24;;;;;;;120.55;110.40;;;;;;;;;;5007753;27;100204;-59
2023/09/11 12:42:51;;;;;;;146.80;134.10;;;;;;;;;;5028252;27;99339;-60
2023/09/11 12:45:17;;;;;;;154.93;141.77;;;;;;;;;;5008944;27;100468;-60
2023/09/11 12:47:44;;;;;;;179.55;164.65;;;;;;;;;;5012187;27;99658;-60
2023/09/11 12:50:10;;;;;;;219.30;199.57;;;;;;;;;;5007204;27;98840;-60
2023/09/11 12:52:37;;;;;;;198.85;182.40;;;;;;;;;;5008435;27;99335;-60
2023/09/11 12:55:06;;;;;;;205.23;187.48;;;;;;;;;;5010771;27;99768;-60
2023/09/11 12:57:32;;;;;;;216.55;197.10;;;;;;;;;;5012583;27;99542;-60
2023/09/11 13:00:01;;;;;;;;;;;;;;;;;;5011623;27;99803;-60
2023/09/11 13:02:31;;;;;;;224.70;202.15;;;;;;;;;;5010192;27;123030;-60
2023/09/11 13:04:58;;;;;;;292.13;265.52;;;;;;;;;;5007224;27;99539;-60
2023/09/11 13:07:24;;;;;;;276.60;254.27;;;;;;;;;;5011758;27;100624;-60
2023/09/11 13:09:51;;;;;;;271.90;247.20;;;;;;;;;;5007176;27;98707;-60
2023/09/11 13:12:17;;;;;;;338.48;307.67;;;;;;;;;;5007738;27;99631;-60
2023/09/11 13:14:44;;;;;;;367.80;333.88;;;;;;;;;;5007063;27;99804;-60
2023/09/11 13:17:10;;;;;;;311.42;284.67;;;;;;;;;;5015790;27;98880;-60
2023/09/11 13:19:36;;;;;;;337.63;308.60;;;;;;;;;;5006680;27;100489;-60
2023/09/11 13:22:05;;;;;;;309.52;280.70;;;;;;;;;;5009566;27;98022;-60
2023/09/11 13:24:31;;;;;;;402.30;366.50;;;;;;;;;;5007160;27;99062;-60
2023/09/11 13:26:57;;;;;;;340.48;310.00;;;;;;;;;;5011065;27;99946;-60
2023/09/11 13:29:24;;;;;;;402.10;366.27;;;;;;;;;;5011116;27;99633;-60
2023/09/11 13:31:50;;;;;;;361.05;328.77;;;;;;;;;;5007227;27;100520;-60
2023/09/11 13:34:17;;;;;;;353.08;322.10;;;;;;;;;;5010849;27;104231;-60
2023/09/11 13:36:44;;;;;;;407.70;371.85;;;;;;;;;;5007387;27;98819;-60
2023/09/11 13:39:11;;;;;;;421.10;383.23;;;;;;;;;;5013337;27;99542;-60
2023/09/11 13:41:38;;;;;;;420.20;384.00;;;;;;;;;;5007242;27;99013;-60
2023/09/11 13:44:04;;;;;;;412.95;375.08;;;;;;;;;;5006545;27;99665;-60
2023/09/11 13:46:31;;;;;;;494.27;449.23;;;;;;;;;;5007993;27;99149;-60
2023/09/11 13:48:57;;;;;;;414.17;376.42;;;;;;;;;;5006244;27;99174;-61
2023/09/11 13:51:25;;;;;;;433.98;396.05;;;;;;;;;;5011195;27;99657;-60
2023/09/11 13:53:51;;;;;;;490.97;448.23;;;;;;;;;;5006008;27;100562;-60
2023/09/11 13:56:17;;;;;;;531.50;485.65;;;;;;;;;;5006313;27;98862;-60
2023/09/11 13:58:44;;;;;;;538.63;489.50;;;;;;;;;;5014551;27;99633;-60
2023/09/11 14:01:14;;;;;;;539.53;491.33;;;;;;;;;;5007364;27;98940;-60
2023/09/11 14:03:43;;;;;;;518.60;474.38;;;;;;;;;;5006683;27;100835;-60
2023/09/11 14:06:10;;;;;;;609.78;555.55;;;;;;;;;;5006593;27;99666;-60
2023/09/11 14:08:36;;;;;;;570.80;520.25;;;;;;;;;;5006986;27;99041;-60
2023/09/11 14:11:03;;;;;;;529.03;484.20;;;;;;;;;;5007323;27;99889;-61
2023/09/11 14:13:29;;;;;;;505.00;459.63;;;;;;;;;;5014884;27;101775;-60
2023/09/11 14:15:55;;;;;;;585.60;533.92;;;;;;;;;;5006783;27;98866;-60
2023/09/11 14:18:22;;;;;;;580.17;529.05;;;;;;;;;;5006490;27;99650;-60